sensor_id;sensor_type;location;lat;lon;timestamp;temperature;humidity
31765;DHT22;18338;53.240;8.798;2024-01-16T00:02:10;0.30;99.90
31765;DHT22;18338;53.240;8.798;2024-01-16T00:04:37;0.20;99.90
31765;DHT22;18338;53.240;8.798;2024-01-16T00:07:05;0.10;99.90
31765;DHT22;18338;53.240;8.798;2024-01-16T00:09:35;0.00;99.90
31765;DHT22;18338;53.240;8.798;2024-01-16T00:12:02;-0.10;99.90
31765;DHT22;18338;53.240;8.798;2024-01-16T00:14:30;-0.10;99.90
31765;DHT22;18338;53.240;8.798;2024-01-16T00:16:57;0.00;99.90
31765;DHT22;18338;53.240;8.798;2024-01-16T00:19:24;0.00;99.90
31765;DHT22;18338;53.240;8.798;2024-01-16T00:21:51;0.00;99.90
31765;DHT22;18338;53.240;8.798;2024-01-16T00:24:18;0.10;99.90
31765;DHT22;18338;53.240;8.798;2024-01-16T00:26:44;0.10;99.90
31765;DHT22;18338;53.240;8.798;2024-01-16T00:29:13;0.20;99.90
31765;DHT22;18338;53.240;8.798;2024-01-16T00:31:40;0.20;99.90
31765;DHT22;18338;53.240;8.798;2024-01-16T00:34:07;0.20;99.90
31765;DHT22;18338;53.240;8.798;2024-01-16T00:36:34;0.30;99.90
31765;DHT22;18338;53.240;8.798;2024-01-16T00:39:01;0.30;99.90
31765;DHT22;18338;53.240;8.798;2024-01-16T00:41:29;0.30;99.90
31765;DHT22;18338;53.240;8.798;2024-01-16T00:43:56;0.30;99.90
31765;DHT22;18338;53.240;8.798;2024-01-16T00:46:23;0.20;99.90
31765;DHT22;18338;53.240;8.798;2024-01-16T00:48:49;0.20;99.90
31765;DHT22;18338;53.240;8.798;2024-01-16T00:51:16;0.20;99.90
31765;DHT22;18338;53.240;8.798;2024-01-16T00:53:43;0.20;99.90
31765;DHT22;18338;53.240;8.798;2024-01-16T00:56:11;0.10;99.90
31765;DHT22;18338;53.240;8.798;2024-01-16T00:58:39;0.00;99.90
31765;DHT22;18338;53.240;8.798;2024-01-16T01:01:06;0.00;99.90
31765;DHT22;18338;53.240;8.798;2024-01-16T01:03:33;0.00;99.90
31765;DHT22;18338;53.240;8.798;2024-01-16T01:06:00;0.00;99.90
31765;DHT22;18338;53.240;8.798;2024-01-16T01:08:28;0.00;99.90
31765;DHT22;18338;53.240;8.798;2024-01-16T01:10:54;-0.10;99.90
31765;DHT22;18338;53.240;8.798;2024-01-16T01:13:22;-0.10;99.90
31765;DHT22;18338;53.240;8.798;2024-01-16T01:15:49;-0.30;99.90
31765;DHT22;18338;53.240;8.798;2024-01-16T01:18:15;-0.40;99.90
31765;DHT22;18338;53.240;8.798;2024-01-16T01:20:42;-0.40;99.90
31765;DHT22;18338;53.240;8.798;2024-01-16T01:23:09;-0.30;99.90
31765;DHT22;18338;53.240;8.798;2024-01-16T01:25:36;-0.20;99.90
31765;DHT22;18338;53.240;8.798;2024-01-16T01:28:04;-0.20;99.90
31765;DHT22;18338;53.240;8.798;2024-01-16T01:30:31;-0.20;99.90
31765;DHT22;18338;53.240;8.798;2024-01-16T01:32:58;-0.20;99.90
31765;DHT22;18338;53.240;8.798;2024-01-16T01:35:25;-0.20;99.90
31765;DHT22;18338;53.240;8.798;2024-01-16T01:37:52;-0.10;99.90
31765;DHT22;18338;53.240;8.798;2024-01-16T01:40:19;0.00;99.90
31765;DHT22;18338;53.240;8.798;2024-01-16T01:42:45;0.10;99.90
31765;DHT22;18338;53.240;8.798;2024-01-16T01:45:12;0.20;99.90
31765;DHT22;18338;53.240;8.798;2024-01-16T01:47:40;0.30;99.90
31765;DHT22;18338;53.240;8.798;2024-01-16T01:50:09;0.40;99.90
31765;DHT22;18338;53.240;8.798;2024-01-16T01:52:38;0.50;99.90
31765;DHT22;18338;53.240;8.798;2024-01-16T01:55:07;0.50;99.90
31765;DHT22;18338;53.240;8.798;2024-01-16T01:57:38;0.50;99.90
31765;DHT22;18338;53.240;8.798;2024-01-16T02:00:06;0.50;99.90
31765;DHT22;18338;53.240;8.798;2024-01-16T02:02:33;0.50;99.90
31765;DHT22;18338;53.240;8.798;2024-01-16T02:05:00;0.50;99.90
31765;DHT22;18338;53.240;8.798;2024-01-16T02:07:28;0.40;99.90
31765;DHT22;18338;53.240;8.798;2024-01-16T02:09:56;0.40;99.90
31765;DHT22;18338;53.240;8.798;2024-01-16T02:12:23;0.30;99.90
31765;DHT22;18338;53.240;8.798;2024-01-16T02:14:51;0.30;99.90
31765;DHT22;18338;53.240;8.798;2024-01-16T02:17:18;0.30;99.90
31765;DHT22;18338;53.240;8.798;2024-01-16T02:19:45;0.30;99.90
31765;DHT22;18338;53.240;8.798;2024-01-16T02:22:16;0.30;99.90
31765;DHT22;18338;53.240;8.798;2024-01-16T02:24:46;0.30;99.90
31765;DHT22;18338;53.240;8.798;2024-01-16T02:27:13;0.40;99.90
31765;DHT22;18338;53.240;8.798;2024-01-16T02:29:43;0.40;99.90
31765;DHT22;18338;53.240;8.798;2024-01-16T02:32:12;0.50;99.90
31765;DHT22;18338;53.240;8.798;2024-01-16T02:34:40;0.50;99.90
31765;DHT22;18338;53.240;8.798;2024-01-16T02:37:07;0.50;99.90
31765;DHT22;18338;53.240;8.798;2024-01-16T02:39:34;0.50;99.90
31765;DHT22;18338;53.240;8.798;2024-01-16T02:42:00;0.40;99.90
31765;DHT22;18338;53.240;8.798;2024-01-16T02:44:27;0.40;99.90
31765;DHT22;18338;53.240;8.798;2024-01-16T02:46:54;0.40;99.90
31765;DHT22;18338;53.240;8.798;2024-01-16T02:49:21;0.40;99.90
31765;DHT22;18338;53.240;8.798;2024-01-16T02:51:48;0.30;99.90
31765;DHT22;18338;53.240;8.798;2024-01-16T02:54:15;0.20;99.90
31765;DHT22;18338;53.240;8.798;2024-01-16T02:56:42;0.10;99.90
31765;DHT22;18338;53.240;8.798;2024-01-16T02:59:09;0.10;99.90
31765;DHT22;18338;53.240;8.798;2024-01-16T03:01:36;0.00;99.90
31765;DHT22;18338;53.240;8.798;2024-01-16T03:04:03;0.00;99.90
31765;DHT22;18338;53.240;8.798;2024-01-16T03:06:30;-0.10;99.90
31765;DHT22;18338;53.240;8.798;2024-01-16T03:08:57;0.00;99.90
31765;DHT22;18338;53.240;8.798;2024-01-16T03:11:24;0.00;99.90
31765;DHT22;18338;53.240;8.798;2024-01-16T03:13:51;0.10;99.90
31765;DHT22;18338;53.240;8.798;2024-01-16T03:16:20;0.10;99.90
31765;DHT22;18338;53.240;8.798;2024-01-16T03:18:46;0.20;99.90
31765;DHT22;18338;53.240;8.798;2024-01-16T03:21:14;0.20;99.90
31765;DHT22;18338;53.240;8.798;2024-01-16T03:23:41;0.20;99.90
31765;DHT22;18338;53.240;8.798;2024-01-16T03:26:12;0.30;99.90
31765;DHT22;18338;53.240;8.798;2024-01-16T03:28:40;0.20;99.90
31765;DHT22;18338;53.240;8.798;2024-01-16T03:31:07;0.20;99.90
31765;DHT22;18338;53.240;8.798;2024-01-16T03:33:34;0.20;99.90
31765;DHT22;18338;53.240;8.798;2024-01-16T03:36:02;0.20;99.90
31765;DHT22;18338;53.240;8.798;2024-01-16T03:38:30;0.10;99.90
31765;DHT22;18338;53.240;8.798;2024-01-16T03:40:57;0.10;99.90
31765;DHT22;18338;53.240;8.798;2024-01-16T03:43:24;0.10;99.90
31765;DHT22;18338;53.240;8.798;2024-01-16T03:45:51;0.10;99.90
31765;DHT22;18338;53.240;8.798;2024-01-16T03:48:17;0.10;99.90
31765;DHT22;18338;53.240;8.798;2024-01-16T03:50:44;0.10;99.90
31765;DHT22;18338;53.240;8.798;2024-01-16T03:53:12;0.00;99.90
31765;DHT22;18338;53.240;8.798;2024-01-16T03:55:39;0.00;99.90
31765;DHT22;18338;53.240;8.798;2024-01-16T03:58:06;0.00;99.90
31765;DHT22;18338;53.240;8.798;2024-01-16T04:00:36;-0.10;99.90
31765;DHT22;18338;53.240;8.798;2024-01-16T04:03:04;-0.20;99.90
31765;DHT22;18338;53.240;8.798;2024-01-16T04:05:30;-0.20;99.90
31765;DHT22;18338;53.240;8.798;2024-01-16T04:07:57;-0.30;99.90
31765;DHT22;18338;53.240;8.798;2024-01-16T04:10:24;-0.40;99.90
31765;DHT22;18338;53.240;8.798;2024-01-16T04:12:51;-0.40;99.90
31765;DHT22;18338;53.240;8.798;2024-01-16T04:15:18;-0.50;99.90
31765;DHT22;18338;53.240;8.798;2024-01-16T04:17:48;-0.50;99.90
31765;DHT22;18338;53.240;8.798;2024-01-16T04:20:15;-0.60;99.90
31765;DHT22;18338;53.240;8.798;2024-01-16T04:22:43;-0.60;99.90
31765;DHT22;18338;53.240;8.798;2024-01-16T04:25:10;-0.60;99.90
31765;DHT22;18338;53.240;8.798;2024-01-16T04:27:36;-0.70;99.90
31765;DHT22;18338;53.240;8.798;2024-01-16T04:30:04;-0.60;99.90
31765;DHT22;18338;53.240;8.798;2024-01-16T04:32:31;-0.60;99.90
31765;DHT22;18338;53.240;8.798;2024-01-16T04:34:58;-0.50;99.90
31765;DHT22;18338;53.240;8.798;2024-01-16T04:37:25;-0.50;99.90
31765;DHT22;18338;53.240;8.798;2024-01-16T04:39:51;-0.50;99.90
31765;DHT22;18338;53.240;8.798;2024-01-16T04:42:18;-0.60;99.90
31765;DHT22;18338;53.240;8.798;2024-01-16T04:44:45;-0.60;99.90
31765;DHT22;18338;53.240;8.798;2024-01-16T04:47:12;-0.60;99.90
31765;DHT22;18338;53.240;8.798;2024-01-16T04:49:41;-0.50;99.90
31765;DHT22;18338;53.240;8.798;2024-01-16T04:52:08;-0.40;99.90
31765;DHT22;18338;53.240;8.798;2024-01-16T04:54:34;-0.40;99.90
31765;DHT22;18338;53.240;8.798;2024-01-16T04:57:01;-0.40;99.90
31765;DHT22;18338;53.240;8.798;2024-01-16T04:59:28;-0.30;99.90
31765;DHT22;18338;53.240;8.798;2024-01-16T05:01:57;-0.30;99.90
31765;DHT22;18338;53.240;8.798;2024-01-16T05:04:24;-0.40;99.90
31765;DHT22;18338;53.240;8.798;2024-01-16T05:06:51;-0.50;99.90
31765;DHT22;18338;53.240;8.798;2024-01-16T05:09:18;-0.50;99.90
31765;DHT22;18338;53.240;8.798;2024-01-16T05:11:48;-0.60;99.90
31765;DHT22;18338;53.240;8.798;2024-01-16T05:14:15;-0.60;99.90
31765;DHT22;18338;53.240;8.798;2024-01-16T05:16:42;-0.60;99.90
31765;DHT22;18338;53.240;8.798;2024-01-16T05:19:09;-0.50;99.90
31765;DHT22;18338;53.240;8.798;2024-01-16T05:21:36;-0.50;99.90
31765;DHT22;18338;53.240;8.798;2024-01-16T05:24:03;-0.50;99.90
31765;DHT22;18338;53.240;8.798;2024-01-16T05:26:29;-0.50;99.90
31765;DHT22;18338;53.240;8.798;2024-01-16T05:28:56;-0.50;99.90
31765;DHT22;18338;53.240;8.798;2024-01-16T05:31:23;-0.50;99.90
31765;DHT22;18338;53.240;8.798;2024-01-16T05:33:49;-0.50;99.90
31765;DHT22;18338;53.240;8.798;2024-01-16T05:36:16;-0.50;99.90
31765;DHT22;18338;53.240;8.798;2024-01-16T05:38:43;-0.50;99.90
31765;DHT22;18338;53.240;8.798;2024-01-16T05:41:10;-0.50;99.90
31765;DHT22;18338;53.240;8.798;2024-01-16T05:43:37;-0.40;99.90
31765;DHT22;18338;53.240;8.798;2024-01-16T05:46:04;-0.30;99.90
31765;DHT22;18338;53.240;8.798;2024-01-16T05:48:30;-0.30;99.90
31765;DHT22;18338;53.240;8.798;2024-01-16T05:50:57;-0.30;99.90
31765;DHT22;18338;53.240;8.798;2024-01-16T05:53:24;-0.30;99.90
31765;DHT22;18338;53.240;8.798;2024-01-16T05:55:51;-0.20;99.90
31765;DHT22;18338;53.240;8.798;2024-01-16T05:58:18;-0.20;99.90
31765;DHT22;18338;53.240;8.798;2024-01-16T06:00:44;-0.20;99.90
31765;DHT22;18338;53.240;8.798;2024-01-16T06:03:11;-0.20;99.90
31765;DHT22;18338;53.240;8.798;2024-01-16T06:05:38;-0.20;99.90
31765;DHT22;18338;53.240;8.798;2024-01-16T06:08:06;-0.20;99.90
31765;DHT22;18338;53.240;8.798;2024-01-16T06:10:33;-0.20;99.90
31765;DHT22;18338;53.240;8.798;2024-01-16T06:13:00;-0.20;99.90
31765;DHT22;18338;53.240;8.798;2024-01-16T06:15:26;-0.30;99.90
31765;DHT22;18338;53.240;8.798;2024-01-16T06:17:53;-0.30;99.90
31765;DHT22;18338;53.240;8.798;2024-01-16T06:20:20;-0.30;99.90
31765;DHT22;18338;53.240;8.798;2024-01-16T06:22:47;-0.20;99.90
31765;DHT22;18338;53.240;8.798;2024-01-16T06:25:14;-0.20;99.90
31765;DHT22;18338;53.240;8.798;2024-01-16T06:27:40;-0.20;99.90
31765;DHT22;18338;53.240;8.798;2024-01-16T06:30:09;-0.20;99.90
31765;DHT22;18338;53.240;8.798;2024-01-16T06:32:36;-0.20;99.90
31765;DHT22;18338;53.240;8.798;2024-01-16T06:35:04;-0.20;99.90
31765;DHT22;18338;53.240;8.798;2024-01-16T06:37:32;-0.20;99.90
31765;DHT22;18338;53.240;8.798;2024-01-16T06:39:59;-0.30;99.90
31765;DHT22;18338;53.240;8.798;2024-01-16T06:42:26;-0.40;99.90
31765;DHT22;18338;53.240;8.798;2024-01-16T06:44:53;-0.50;99.90
31765;DHT22;18338;53.240;8.798;2024-01-16T06:47:20;-0.40;99.90
31765;DHT22;18338;53.240;8.798;2024-01-16T06:49:49;-0.40;99.90
31765;DHT22;18338;53.240;8.798;2024-01-16T06:52:16;-0.40;99.90
31765;DHT22;18338;53.240;8.798;2024-01-16T06:54:43;-0.40;99.90
31765;DHT22;18338;53.240;8.798;2024-01-16T06:57:11;-0.30;99.90
31765;DHT22;18338;53.240;8.798;2024-01-16T06:59:37;-0.40;99.90
31765;DHT22;18338;53.240;8.798;2024-01-16T07:02:04;-0.40;99.90
31765;DHT22;18338;53.240;8.798;2024-01-16T07:04:31;-0.50;99.90
31765;DHT22;18338;53.240;8.798;2024-01-16T07:06:58;-0.50;99.90
31765;DHT22;18338;53.240;8.798;2024-01-16T07:09:26;-0.50;99.90
31765;DHT22;18338;53.240;8.798;2024-01-16T07:11:54;-0.50;99.90
31765;DHT22;18338;53.240;8.798;2024-01-16T07:14:21;-0.50;99.90
31765;DHT22;18338;53.240;8.798;2024-01-16T07:16:48;-0.60;99.90
31765;DHT22;18338;53.240;8.798;2024-01-16T07:19:16;-0.60;99.90
31765;DHT22;18338;53.240;8.798;2024-01-16T07:21:43;-0.60;99.90
31765;DHT22;18338;53.240;8.798;2024-01-16T07:24:11;-0.60;99.90
31765;DHT22;18338;53.240;8.798;2024-01-16T07:26:38;-0.60;99.90
31765;DHT22;18338;53.240;8.798;2024-01-16T07:29:14;-0.50;99.90
31765;DHT22;18338;53.240;8.798;2024-01-16T07:31:50;-0.60;99.90
31765;DHT22;18338;53.240;8.798;2024-01-16T07:34:17;-0.50;99.90
31765;DHT22;18338;53.240;8.798;2024-01-16T07:36:48;-0.60;99.90
31765;DHT22;18338;53.240;8.798;2024-01-16T07:39:14;-0.60;99.90
31765;DHT22;18338;53.240;8.798;2024-01-16T07:41:41;-0.50;99.90
31765;DHT22;18338;53.240;8.798;2024-01-16T07:44:08;-0.50;99.90
31765;DHT22;18338;53.240;8.798;2024-01-16T07:46:35;-0.50;99.90
31765;DHT22;18338;53.240;8.798;2024-01-16T07:49:02;-0.50;99.90
31765;DHT22;18338;53.240;8.798;2024-01-16T07:51:29;-0.50;99.90
31765;DHT22;18338;53.240;8.798;2024-01-16T07:54:05;-0.40;99.90
31765;DHT22;18338;53.240;8.798;2024-01-16T07:56:33;-0.30;99.90
31765;DHT22;18338;53.240;8.798;2024-01-16T07:59:01;-0.30;99.90
31765;DHT22;18338;53.240;8.798;2024-01-16T08:01:30;-0.30;99.90
31765;DHT22;18338;53.240;8.798;2024-01-16T08:03:57;-0.30;99.90
31765;DHT22;18338;53.240;8.798;2024-01-16T08:06:24;-0.20;99.90
31765;DHT22;18338;53.240;8.798;2024-01-16T08:08:51;-0.30;99.90
31765;DHT22;18338;53.240;8.798;2024-01-16T08:11:19;-0.20;99.90
31765;DHT22;18338;53.240;8.798;2024-01-16T08:13:45;-0.20;99.90
31765;DHT22;18338;53.240;8.798;2024-01-16T08:16:12;-0.20;99.90
31765;DHT22;18338;53.240;8.798;2024-01-16T08:18:39;-0.10;99.90
31765;DHT22;18338;53.240;8.798;2024-01-16T08:21:06;-0.10;99.90
31765;DHT22;18338;53.240;8.798;2024-01-16T08:23:34;0.00;99.90
31765;DHT22;18338;53.240;8.798;2024-01-16T08:26:01;0.00;99.90
31765;DHT22;18338;53.240;8.798;2024-01-16T08:28:28;0.10;99.90
31765;DHT22;18338;53.240;8.798;2024-01-16T08:30:55;0.10;99.90
31765;DHT22;18338;53.240;8.798;2024-01-16T08:33:22;0.20;99.90
31765;DHT22;18338;53.240;8.798;2024-01-16T08:35:59;0.20;99.90
31765;DHT22;18338;53.240;8.798;2024-01-16T08:38:26;0.20;99.90
31765;DHT22;18338;53.240;8.798;2024-01-16T08:40:53;0.30;99.90
31765;DHT22;18338;53.240;8.798;2024-01-16T08:43:20;0.40;99.90
31765;DHT22;18338;53.240;8.798;2024-01-16T08:45:47;0.40;99.90
31765;DHT22;18338;53.240;8.798;2024-01-16T08:48:14;0.40;99.90
31765;DHT22;18338;53.240;8.798;2024-01-16T08:50:42;0.40;99.90
31765;DHT22;18338;53.240;8.798;2024-01-16T08:53:08;0.50;99.90
31765;DHT22;18338;53.240;8.798;2024-01-16T08:55:35;0.50;99.90
31765;DHT22;18338;53.240;8.798;2024-01-16T08:58:02;0.50;99.90
31765;DHT22;18338;53.240;8.798;2024-01-16T09:00:29;0.50;99.90
31765;DHT22;18338;53.240;8.798;2024-01-16T09:02:56;0.50;99.90
31765;DHT22;18338;53.240;8.798;2024-01-16T09:05:26;0.60;99.90
31765;DHT22;18338;53.240;8.798;2024-01-16T09:07:53;0.60;99.90
31765;DHT22;18338;53.240;8.798;2024-01-16T09:10:20;0.60;99.90
31765;DHT22;18338;53.240;8.798;2024-01-16T09:12:47;0.60;99.90
31765;DHT22;18338;53.240;8.798;2024-01-16T09:15:15;0.60;99.90
31765;DHT22;18338;53.240;8.798;2024-01-16T09:17:42;0.60;99.90
31765;DHT22;18338;53.240;8.798;2024-01-16T09:20:09;0.60;99.90
31765;DHT22;18338;53.240;8.798;2024-01-16T09:22:36;0.60;99.90
31765;DHT22;18338;53.240;8.798;2024-01-16T09:25:03;0.60;99.90
31765;DHT22;18338;53.240;8.798;2024-01-16T09:27:30;0.70;99.90
31765;DHT22;18338;53.240;8.798;2024-01-16T09:29:57;0.70;99.90
31765;DHT22;18338;53.240;8.798;2024-01-16T09:32:24;0.70;99.90
31765;DHT22;18338;53.240;8.798;2024-01-16T09:34:51;0.80;99.90
31765;DHT22;18338;53.240;8.798;2024-01-16T09:37:18;0.80;99.90
31765;DHT22;18338;53.240;8.798;2024-01-16T09:39:45;0.80;99.90
31765;DHT22;18338;53.240;8.798;2024-01-16T09:42:12;0.90;99.90
31765;DHT22;18338;53.240;8.798;2024-01-16T09:44:40;0.90;99.90
31765;DHT22;18338;53.240;8.798;2024-01-16T09:47:08;1.00;99.90
31765;DHT22;18338;53.240;8.798;2024-01-16T09:49:38;1.10;99.90
31765;DHT22;18338;53.240;8.798;2024-01-16T09:52:06;1.10;99.90
31765;DHT22;18338;53.240;8.798;2024-01-16T09:54:33;1.20;99.90
31765;DHT22;18338;53.240;8.798;2024-01-16T09:57:01;1.50;99.90
31765;DHT22;18338;53.240;8.798;2024-01-16T09:59:31;1.40;99.90
31765;DHT22;18338;53.240;8.798;2024-01-16T10:01:58;1.50;99.90
31765;DHT22;18338;53.240;8.798;2024-01-16T10:04:27;1.50;99.90
31765;DHT22;18338;53.240;8.798;2024-01-16T10:06:54;1.50;99.90
31765;DHT22;18338;53.240;8.798;2024-01-16T10:09:24;1.50;99.90
31765;DHT22;18338;53.240;8.798;2024-01-16T10:11:52;1.50;99.90
31765;DHT22;18338;53.240;8.798;2024-01-16T10:14:19;1.50;99.90
31765;DHT22;18338;53.240;8.798;2024-01-16T10:16:59;1.50;99.90
31765;DHT22;18338;53.240;8.798;2024-01-16T10:19:29;1.50;99.90
31765;DHT22;18338;53.240;8.798;2024-01-16T10:22:12;1.40;99.90
31765;DHT22;18338;53.240;8.798;2024-01-16T10:24:40;1.40;99.90
31765;DHT22;18338;53.240;8.798;2024-01-16T10:27:07;1.40;99.90
31765;DHT22;18338;53.240;8.798;2024-01-16T10:29:34;1.40;99.90
31765;DHT22;18338;53.240;8.798;2024-01-16T10:32:30;1.30;99.90
31765;DHT22;18338;53.240;8.798;2024-01-16T10:37:46;1.30;99.90
31765;DHT22;18338;53.240;8.798;2024-01-16T10:40:18;1.30;99.90
31765;DHT22;18338;53.240;8.798;2024-01-16T10:43:05;1.40;99.90
31765;DHT22;18338;53.240;8.798;2024-01-16T10:45:32;1.30;99.90
31765;DHT22;18338;53.240;8.798;2024-01-16T10:48:04;1.30;99.90
31765;DHT22;18338;53.240;8.798;2024-01-16T10:50:37;1.40;99.90
31765;DHT22;18338;53.240;8.798;2024-01-16T10:53:08;1.40;99.90
31765;DHT22;18338;53.240;8.798;2024-01-16T10:55:49;1.50;99.90
31765;DHT22;18338;53.240;8.798;2024-01-16T10:58:22;1.50;99.90
31765;DHT22;18338;53.240;8.798;2024-01-16T11:00:52;1.50;99.90
31765;DHT22;18338;53.240;8.798;2024-01-16T11:03:25;1.60;99.90
31765;DHT22;18338;53.240;8.798;2024-01-16T11:05:57;1.60;99.90
31765;DHT22;18338;53.240;8.798;2024-01-16T11:08:25;1.70;99.90
31765;DHT22;18338;53.240;8.798;2024-01-16T11:11:01;1.70;99.90
31765;DHT22;18338;53.240;8.798;2024-01-16T11:13:33;1.60;99.90
31765;DHT22;18338;53.240;8.798;2024-01-16T11:16:05;1.70;99.90
31765;DHT22;18338;53.240;8.798;2024-01-16T11:18:34;1.80;99.90
31765;DHT22;18338;53.240;8.798;2024-01-16T11:21:13;1.70;99.90
31765;DHT22;18338;53.240;8.798;2024-01-16T11:23:44;1.80;99.90
31765;DHT22;18338;53.240;8.798;2024-01-16T11:26:27;1.80;99.90
31765;DHT22;18338;53.240;8.798;2024-01-16T11:28:57;1.80;99.90
31765;DHT22;18338;53.240;8.798;2024-01-16T11:31:31;2.00;99.90
31765;DHT22;18338;53.240;8.798;2024-01-16T11:34:00;2.00;99.90
31765;DHT22;18338;53.240;8.798;2024-01-16T11:36:54;2.00;99.90
31765;DHT22;18338;53.240;8.798;2024-01-16T11:39:26;1.80;99.90
31765;DHT22;18338;53.240;8.798;2024-01-16T11:41:57;1.80;99.90
31765;DHT22;18338;53.240;8.798;2024-01-16T11:44:46;1.70;99.90
31765;DHT22;18338;53.240;8.798;2024-01-16T11:47:22;1.80;99.90
31765;DHT22;18338;53.240;8.798;2024-01-16T11:50:11;1.70;99.90
31765;DHT22;18338;53.240;8.798;2024-01-16T11:52:40;1.60;99.90
31765;DHT22;18338;53.240;8.798;2024-01-16T11:55:33;1.60;99.90
31765;DHT22;18338;53.240;8.798;2024-01-16T11:58:24;1.50;99.90
31765;DHT22;18338;53.240;8.798;2024-01-16T12:00:53;1.40;99.90
31765;DHT22;18338;53.240;8.798;2024-01-16T12:03:21;1.30;99.90
31765;DHT22;18338;53.240;8.798;2024-01-16T12:06:01;1.30;99.90
31765;DHT22;18338;53.240;8.798;2024-01-16T12:08:32;1.20;99.90
31765;DHT22;18338;53.240;8.798;2024-01-16T12:10:59;1.20;99.90
31765;DHT22;18338;53.240;8.798;2024-01-16T12:13:29;1.20;99.90
31765;DHT22;18338;53.240;8.798;2024-01-16T12:16:01;1.20;99.90
31765;DHT22;18338;53.240;8.798;2024-01-16T12:18:31;1.20;99.90
31765;DHT22;18338;53.240;8.798;2024-01-16T12:21:13;1.30;99.90
31765;DHT22;18338;53.240;8.798;2024-01-16T12:23:42;1.30;99.90
31765;DHT22;18338;53.240;8.798;2024-01-16T12:26:22;1.20;99.90
31765;DHT22;18338;53.240;8.798;2024-01-16T12:28:52;1.30;99.90
31765;DHT22;18338;53.240;8.798;2024-01-16T12:31:28;1.30;99.90
31765;DHT22;18338;53.240;8.798;2024-01-16T12:34:08;1.30;99.90
31765;DHT22;18338;53.240;8.798;2024-01-16T12:36:38;1.30;99.90
31765;DHT22;18338;53.240;8.798;2024-01-16T12:39:05;1.30;99.90
31765;DHT22;18338;53.240;8.798;2024-01-16T12:41:37;1.30;99.90
31765;DHT22;18338;53.240;8.798;2024-01-16T12:44:10;1.40;99.90
31765;DHT22;18338;53.240;8.798;2024-01-16T12:47:03;1.50;99.90
31765;DHT22;18338;53.240;8.798;2024-01-16T12:49:31;1.40;99.90
31765;DHT22;18338;53.240;8.798;2024-01-16T12:52:17;1.40;99.90
31765;DHT22;18338;53.240;8.798;2024-01-16T12:54:48;1.50;99.90
31765;DHT22;18338;53.240;8.798;2024-01-16T12:57:21;1.50;99.90
31765;DHT22;18338;53.240;8.798;2024-01-16T12:59:48;1.50;99.90
31765;DHT22;18338;53.240;8.798;2024-01-16T13:02:21;1.50;99.90
31765;DHT22;18338;53.240;8.798;2024-01-16T13:04:59;1.50;99.90
31765;DHT22;18338;53.240;8.798;2024-01-16T13:07:27;1.50;99.90
31765;DHT22;18338;53.240;8.798;2024-01-16T13:10:13;1.50;99.90
31765;DHT22;18338;53.240;8.798;2024-01-16T13:12:49;1.40;99.90
31765;DHT22;18338;53.240;8.798;2024-01-16T13:15:16;1.40;99.90
31765;DHT22;18338;53.240;8.798;2024-01-16T13:17:44;1.50;99.90
31765;DHT22;18338;53.240;8.798;2024-01-16T13:20:11;1.50;99.90
31765;DHT22;18338;53.240;8.798;2024-01-16T13:22:40;1.40;99.90
31765;DHT22;18338;53.240;8.798;2024-01-16T13:25:13;1.40;99.90
31765;DHT22;18338;53.240;8.798;2024-01-16T13:27:40;1.40;99.90
31765;DHT22;18338;53.240;8.798;2024-01-16T13:30:07;1.40;99.90
31765;DHT22;18338;53.240;8.798;2024-01-16T13:32:57;1.40;99.90
31765;DHT22;18338;53.240;8.798;2024-01-16T13:35:24;1.40;99.90
31765;DHT22;18338;53.240;8.798;2024-01-16T13:37:51;1.40;99.90
31765;DHT22;18338;53.240;8.798;2024-01-16T13:40:19;1.50;99.90
31765;DHT22;18338;53.240;8.798;2024-01-16T13:42:49;1.50;99.90
31765;DHT22;18338;53.240;8.798;2024-01-16T13:45:16;1.50;99.90
31765;DHT22;18338;53.240;8.798;2024-01-16T13:47:45;1.50;99.90
31765;DHT22;18338;53.240;8.798;2024-01-16T13:50:14;1.50;99.90
31765;DHT22;18338;53.240;8.798;2024-01-16T13:52:41;1.50;99.90
31765;DHT22;18338;53.240;8.798;2024-01-16T13:55:08;1.50;99.90
31765;DHT22;18338;53.240;8.798;2024-01-16T13:57:35;1.50;99.90
31765;DHT22;18338;53.240;8.798;2024-01-16T14:00:03;1.50;99.90
31765;DHT22;18338;53.240;8.798;2024-01-16T14:02:31;1.50;99.90
31765;DHT22;18338;53.240;8.798;2024-01-16T14:04:58;1.50;99.90
31765;DHT22;18338;53.240;8.798;2024-01-16T14:07:27;1.50;99.90
31765;DHT22;18338;53.240;8.798;2024-01-16T14:09:56;1.50;99.90
31765;DHT22;18338;53.240;8.798;2024-01-16T14:12:24;1.50;99.90
31765;DHT22;18338;53.240;8.798;2024-01-16T14:14:54;1.50;99.90
31765;DHT22;18338;53.240;8.798;2024-01-16T14:17:23;1.40;99.90
31765;DHT22;18338;53.240;8.798;2024-01-16T14:19:53;1.50;99.90
31765;DHT22;18338;53.240;8.798;2024-01-16T14:22:24;1.50;99.90
31765;DHT22;18338;53.240;8.798;2024-01-16T14:24:56;1.40;99.90
31765;DHT22;18338;53.240;8.798;2024-01-16T14:27:23;1.40;99.90
31765;DHT22;18338;53.240;8.798;2024-01-16T14:29:53;1.40;99.90
31765;DHT22;18338;53.240;8.798;2024-01-16T14:32:21;1.40;99.90
31765;DHT22;18338;53.240;8.798;2024-01-16T14:34:48;1.40;99.90
31765;DHT22;18338;53.240;8.798;2024-01-16T14:37:18;1.40;99.90
31765;DHT22;18338;53.240;8.798;2024-01-16T14:39:44;1.30;99.90
31765;DHT22;18338;53.240;8.798;2024-01-16T14:42:11;1.30;99.90
31765;DHT22;18338;53.240;8.798;2024-01-16T14:44:39;1.20;99.90
31765;DHT22;18338;53.240;8.798;2024-01-16T14:47:06;1.20;99.90
31765;DHT22;18338;53.240;8.798;2024-01-16T14:49:35;1.20;99.90
31765;DHT22;18338;53.240;8.798;2024-01-16T14:52:05;1.20;99.90
31765;DHT22;18338;53.240;8.798;2024-01-16T14:54:34;1.20;99.90
31765;DHT22;18338;53.240;8.798;2024-01-16T14:59:32;1.10;99.90
31765;DHT22;18338;53.240;8.798;2024-01-16T15:02:02;1.10;99.90
31765;DHT22;18338;53.240;8.798;2024-01-16T15:04:42;1.10;99.90
31765;DHT22;18338;53.240;8.798;2024-01-16T15:07:13;1.10;99.90
31765;DHT22;18338;53.240;8.798;2024-01-16T15:09:39;1.10;99.90
31765;DHT22;18338;53.240;8.798;2024-01-16T15:12:07;1.10;99.90
31765;DHT22;18338;53.240;8.798;2024-01-16T15:14:34;1.00;99.90
31765;DHT22;18338;53.240;8.798;2024-01-16T15:17:02;1.00;99.90
31765;DHT22;18338;53.240;8.798;2024-01-16T15:19:29;1.00;99.90
31765;DHT22;18338;53.240;8.798;2024-01-16T15:21:56;0.90;99.90
31765;DHT22;18338;53.240;8.798;2024-01-16T15:24:22;0.90;99.90
31765;DHT22;18338;53.240;8.798;2024-01-16T15:26:55;0.80;99.90
31765;DHT22;18338;53.240;8.798;2024-01-16T15:29:23;0.80;99.90
31765;DHT22;18338;53.240;8.798;2024-01-16T15:31:50;0.80;99.90
31765;DHT22;18338;53.240;8.798;2024-01-16T15:34:19;0.80;99.90
31765;DHT22;18338;53.240;8.798;2024-01-16T15:36:46;0.80;99.90
31765;DHT22;18338;53.240;8.798;2024-01-16T15:39:14;0.80;99.90
31765;DHT22;18338;53.240;8.798;2024-01-16T15:41:46;0.80;99.90
31765;DHT22;18338;53.240;8.798;2024-01-16T15:44:13;0.70;99.90
31765;DHT22;18338;53.240;8.798;2024-01-16T15:47:02;0.70;99.90
31765;DHT22;18338;53.240;8.798;2024-01-16T15:49:30;0.70;99.90
31765;DHT22;18338;53.240;8.798;2024-01-16T15:52:24;0.80;99.90
31765;DHT22;18338;53.240;8.798;2024-01-16T15:54:51;0.70;99.90
31765;DHT22;18338;53.240;8.798;2024-01-16T15:57:18;0.70;99.90
31765;DHT22;18338;53.240;8.798;2024-01-16T15:59:45;0.70;99.90